Sunday, January 20, 2019, 1:31 AM GMT
Back to Local

CXBO, Beauport CS, Que.

Location: , , Canada Lat: 46.833
Local Time: 1:31 AM GMT ( 1:31 GMT) Lon: -71.2
Time Zone: GMT Elev: 32 ft

Show me the last for .
Show Coded

Time T Td Feel RH Dir Speed Gust Alt SLP Vis Weather Sky Remarks
2019-01-20 01:00 - - - 0 50° 8 - - - 0 None
2019-01-20 00:00 - - - 0 20° 2 - - - 0 None
2019-01-19 23:00 - - - 0 - Calm - - - 0 None
2019-01-19 22:00 - - - 0 290° 2 - - - 0 None
2019-01-19 21:00 - - - 0 290° 3 - - - 0 None
2019-01-19 20:00 - - - 0 280° 3 - - - 0 None
2019-01-19 19:00 - - - 0 240° 3 - - - 0 None
2019-01-19 18:00 - - - 0 240° 5 - - - 0 None
2019-01-19 17:00 - - - 0 260° 6 - - - 0 None
2019-01-19 16:00 - - - 0 250° 6 - - - 0 None
2019-01-19 15:00 - - - 0 230° 8 - - - 0 None
2019-01-19 14:00 - - - 0 230° 8 - - - 0 None
2019-01-19 13:00 - - - 0 250° 7 - - - 0 None
2019-01-19 11:00 - - - 0 260° 9 - - - 0 None
2019-01-19 10:00 - - - 0 270° 9 - - - 0 None
2019-01-19 09:00 - - - 0 300° 8 - - - 0 None
2019-01-19 08:00 - - - 0 290° 8 - - - 0 None
2019-01-19 07:00 - - - 0 280° 8 - - - 0 None
2019-01-19 06:00 - - - 0 290° 10 - - - 0 Peak wind: 20 mph (18 kts) from 280° at 14 min
2019-01-19 05:00 - - - 0 280° 12 17 - - 0 Peak wind: 20 mph (18 kts) from 290° at 22 min
2019-01-19 04:00 - - - 0 290° 9 - - - 0 Peak wind: 23 mph (20 kts) from 260° at 03 min
2019-01-19 03:00 - - - 0 260° 16 26 - - 0 Peak wind: 26 mph (23 kts) from 270° at 59 min
2019-01-19 02:00 - - - 0 250° 14 - - - 0 None

Support USWX by starting your Amazon purchase here.